Time;durP1;ratioP1;P1;durP2;ratioP2;P2;SDS_P1;SDS_P2;PMS_P1;PMS_P2;Temp;Humidity;BMP_temperature;BMP_pressure;BME280_temperature;BME280_humidity;BME280_pressure;Samples;Min_cycle;Max_cycle;Signal;HPM_P1;HPM_P2
2021/07/20 00:01:36;;;;;;;8.50;5.30;;;21.60;68.70;;;;;;2234936;56;21003;-69
2021/07/20 00:04:03;;;;;;;8.85;5.65;;;21.50;68.50;;;;;;2241058;56;21415;-70
2021/07/20 00:06:45;;;;;;;;;;;21.50;68.70;;;;;;2261273;56;21809;-69
2021/07/20 00:09:11;;;;;;;6.45;3.85;;;21.50;67.90;;;;;;2242326;56;20075;-70
2021/07/20 00:11:38;;;;;;;7.00;4.47;;;21.40;68.70;;;;;;2235136;56;20949;-70
2021/07/20 00:14:04;;;;;;;7.93;5.20;;;21.40;68.80;;;;;;2239954;56;21022;-70
2021/07/20 00:16:31;;;;;;;11.40;5.78;;;21.30;68.80;;;;;;2218618;57;21006;-70
2021/07/20 00:18:57;;;;;;;8.32;5.53;;;21.30;68.90;;;;;;2236494;56;20941;-70
2021/07/20 00:21:23;;;;;;;8.70;5.30;;;21.30;69.00;;;;;;2388142;55;21530;-69
2021/07/20 00:23:49;;;;;;;10.80;5.90;;;21.30;69.00;;;;;;2240124;55;21021;-69
2021/07/20 00:26:17;;;;;;;9.70;5.18;;;21.20;68.90;;;;;;2235128;56;20946;-70
2021/07/20 00:28:44;;;;;;;7.90;5.00;;;21.20;68.90;;;;;;2241438;56;21065;-69
2021/07/20 00:31:10;;;;;;;10.20;5.30;;;21.10;68.90;;;;;;2459429;55;20961;-69
2021/07/20 00:33:37;;;;;;;9.45;5.65;;;21.10;68.90;;;;;;2321468;56;21274;-69
2021/07/20 00:36:03;;;;;;;7.85;5.07;;;21.00;68.80;;;;;;2220692;57;20995;-68
2021/07/20 00:38:31;;;;;;;8.00;5.32;;;21.00;68.90;;;;;;2236894;56;20966;-70
2021/07/20 00:40:57;;;;;;;8.18;5.03;;;21.00;69.00;;;;;;2239873;56;21513;-69
2021/07/20 00:43:23;;;;;;;8.13;5.18;;;20.90;68.90;;;;;;2241531;56;21483;-70
2021/07/20 00:45:50;;;;;;;7.97;5.35;;;20.90;69.00;;;;;;2235550;56;20975;-69
2021/07/20 00:48:16;;;;;;;9.57;5.43;;;20.80;69.00;;;;;;2267463;56;21351;-69
2021/07/20 00:50:44;;;;;;;8.10;5.15;;;20.80;69.00;;;;;;2239688;56;20962;-69
2021/07/20 00:53:11;;;;;;;9.20;5.22;;;20.70;68.90;;;;;;2238935;56;21510;-70
2021/07/20 00:55:38;;;;;;;7.65;4.93;;;20.70;69.00;;;;;;2464031;55;20966;-69
2021/07/20 00:58:05;;;;;;;6.85;4.62;;;20.70;69.10;;;;;;2237829;56;21400;-69
2021/07/20 01:00:32;;;;;;;7.47;4.62;;;20.60;69.10;;;;;;2237842;56;20922;-68
2021/07/20 01:02:58;;;;;;;8.88;4.90;;;20.60;69.20;;;;;;2299392;56;21098;-69
2021/07/20 01:05:25;;;;;;;9.38;5.28;;;20.60;69.20;;;;;;2238722;56;20958;-68
2021/07/20 01:07:51;;;;;;;8.63;5.18;;;20.50;69.20;;;;;;2243716;56;21006;-69
2021/07/20 01:10:18;;;;;;;9.30;5.55;;;20.50;69.20;;;;;;2236941;56;21054;-69
2021/07/20 01:12:44;;;;;;;10.95;5.70;;;20.40;69.20;;;;;;2243554;56;20962;-69
2021/07/20 01:15:13;;;;;;;7.65;4.97;;;20.40;69.20;;;;;;2227958;55;21493;-69
2021/07/20 01:17:39;;;;;;;7.82;5.00;;;20.40;69.20;;;;;;2260560;56;20966;-69
2021/07/20 01:20:10;;;;;;;9.23;5.30;;;20.40;69.40;;;;;;2236244;56;20962;-69
2021/07/20 01:22:37;;;;;;;8.38;5.37;;;20.30;69.30;;;;;;2239501;56;21019;-68
2021/07/20 01:25:09;;;;;;;7.85;5.10;;;20.30;69.30;;;;;;2459139;55;20962;-69
2021/07/20 01:27:42;;;;;;;7.75;5.10;;;20.20;69.90;;;;;;2406401;56;21062;-69
2021/07/20 01:30:09;;;;;;;7.30;4.60;;;20.20;69.30;;;;;;2223363;56;20986;-69
2021/07/20 01:32:35;;;;;;;6.97;4.25;;;20.20;69.50;;;;;;2240485;56;21259;-70
2021/07/20 01:35:02;;;;;;;8.13;4.47;;;20.10;69.50;;;;;;2458523;55;21745;-69
2021/07/20 01:37:28;;;;;;;7.62;4.87;;;20.10;69.60;;;;;;2239022;56;20990;-69
2021/07/20 01:39:55;;;;;;;11.00;5.80;;;20.10;69.60;;;;;;2240266;56;20935;-70
2021/07/20 01:42:21;;;;;;;8.13;5.00;;;20.00;69.50;;;;;;2460156;55;20951;-70
2021/07/20 01:44:47;;;;;;;8.05;4.87;;;20.00;69.60;;;;;;2237975;56;21373;-69
2021/07/20 01:47:13;;;;;;;8.93;5.65;;;20.00;69.60;;;;;;2462925;56;21006;-69
2021/07/20 01:49:41;;;;;;;9.32;5.85;;;20.00;69.60;;;;;;2434492;56;20958;-70
2021/07/20 01:52:07;;;;;;;13.70;6.47;;;19.90;69.50;;;;;;2243644;56;20922;-69
2021/07/20 01:54:33;;;;;;;10.40;6.22;;;19.90;69.60;;;;;;2238184;56;20943;-69
2021/07/20 01:57:00;;;;;;;9.10;5.80;;;19.80;69.50;;;;;;2238046;56;20938;-68
2021/07/20 01:59:26;;;;;;;9.35;5.85;;;19.80;69.60;;;;;;2245703;56;20962;-70
2021/07/20 02:02:06;;;;;;;8.65;5.53;;;19.80;69.70;;;;;;2452241;55;21680;-69
2021/07/20 02:10:44;;;;;;;9.77;5.78;;;19.70;69.90;;;;;;2218251;57;21342;-69
2021/07/20 02:13:14;;;;;;;9.55;6.07;;;19.60;69.80;;;;;;2308887;56;20926;-69
2021/07/20 02:15:40;;;;;;;9.13;6.15;;;19.60;69.80;;;;;;2238765;56;20927;-70
2021/07/20 02:18:07;;;;;;;10.82;6.37;;;19.60;69.90;;;;;;2240439;56;21531;-68
2021/07/20 02:20:34;;;;;;;9.93;6.62;;;19.60;69.90;;;;;;2237627;56;21574;-69
2021/07/20 02:23:00;;;;;;;9.65;5.95;;;19.50;70.50;;;;;;2239498;56;21018;-70
2021/07/20 02:25:28;;;;;;;10.80;6.43;;;19.50;69.90;;;;;;2239120;56;20958;-70
2021/07/20 02:27:56;;;;;;;10.48;6.55;;;19.50;70.00;;;;;;2239718;56;21019;-69
2021/07/20 02:30:22;;;;;;;8.43;5.45;;;19.40;70.00;;;;;;2241186;56;20995;-69
2021/07/20 02:32:49;;;;;;;9.20;5.70;;;19.40;70.10;;;;;;2242580;56;21022;-69
2021/07/20 02:35:25;;;;;;;10.27;6.37;;;19.40;70.10;;;;;;2232470;56;20918;-70
2021/07/20 02:37:52;;;;;;;8.65;5.87;;;19.40;70.00;;;;;;2241575;56;20999;-69
2021/07/20 02:40:19;;;;;;;9.27;6.57;;;19.30;70.10;;;;;;2464172;56;20974;-69
2021/07/20 02:42:45;;;;;;;10.32;6.62;;;19.30;70.20;;;;;;2242003;56;21078;-70
2021/07/20 02:45:12;;;;;;;10.68;6.57;;;19.30;70.20;;;;;;2239543;56;21228;-69
2021/07/20 02:47:38;;;;;;;9.90;6.75;;;19.30;70.30;;;;;;2297629;56;21114;-70
2021/07/20 02:50:08;;;;;;;8.55;6.10;;;19.20;70.20;;;;;;2235571;56;21018;-70
2021/07/20 02:52:35;;;;;;;10.13;6.43;;;19.20;70.10;;;;;;2242612;56;21519;-69
2021/07/20 02:55:01;;;;;;;10.43;6.50;;;19.10;70.20;;;;;;2401889;56;20958;-69
2021/07/20 02:57:28;;;;;;;10.80;6.75;;;19.20;70.40;;;;;;2236700;56;20970;-70
2021/07/20 02:59:54;;;;;;;10.07;6.57;;;19.10;70.30;;;;;;2464225;56;21002;-70
2021/07/20 03:02:20;;;;;;;11.05;7.05;;;19.10;70.40;;;;;;2235632;56;20978;-69
2021/07/20 03:04:46;;;;;;;9.05;5.95;;;19.10;71.20;;;;;;2241381;56;21063;-69
2021/07/20 03:07:14;;;;;;;10.57;6.85;;;19.10;70.50;;;;;;2237641;56;20963;-70
2021/07/20 03:09:41;;;;;;;7.65;4.87;;;19.00;70.40;;;;;;2239752;56;21029;-69
2021/07/20 03:12:10;;;;;;;11.60;6.30;;;19.00;70.40;;;;;;2239668;56;20974;-70
2021/07/20 03:14:37;;;;;;;11.20;5.90;;;19.00;70.50;;;;;;2239733;56;21515;-70
2021/07/20 03:17:03;;;;;;;9.75;6.10;;;19.00;70.50;;;;;;2239821;56;20965;-70
2021/07/20 03:19:30;;;;;;;8.90;5.65;;;18.90;70.50;;;;;;2240081;56;20954;-68
2021/07/20 03:21:59;;;;;;;9.57;6.25;;;18.90;70.50;;;;;;2462852;55;21555;-69
2021/07/20 03:24:26;;;;;;;12.43;6.53;;;18.90;70.60;;;;;;2239850;56;21250;-68
2021/07/20 03:26:53;;;;;;;9.35;6.35;;;18.90;70.60;;;;;;2463204;56;20942;-70
2021/07/20 03:29:19;;;;;;;9.60;6.40;;;18.80;70.60;;;;;;2239704;56;21308;-71
2021/07/20 03:31:45;;;;;;;10.07;6.20;;;18.80;70.70;;;;;;2238867;56;22058;-70
2021/07/20 03:34:12;;;;;;;10.88;5.85;;;18.80;70.70;;;;;;2239596;56;20962;-70
2021/07/20 03:36:38;;;;;;;9.32;5.82;;;18.80;70.70;;;;;;2241080;56;21442;-69
2021/07/20 03:39:05;;;;;;;8.57;5.28;;;18.80;70.80;;;;;;2355868;56;21009;-70
2021/07/20 03:41:31;;;;;;;9.82;5.82;;;18.80;70.80;;;;;;2460549;55;21039;-68
2021/07/20 03:43:58;;;;;;;9.25;6.20;;;18.70;70.80;;;;;;2238329;56;21511;-70
2021/07/20 03:46:24;;;;;;;11.48;6.03;;;18.70;70.70;;;;;;2240084;56;21034;-68
2021/07/20 03:48:51;;;;;;;8.63;5.72;;;18.70;70.80;;;;;;2462166;56;21460;-69
2021/07/20 03:51:17;;;;;;;10.73;5.82;;;18.70;70.80;;;;;;2239462;56;21037;-69
2021/07/20 03:53:44;;;;;;;10.15;6.40;;;18.70;70.90;;;;;;2239636;56;21031;-69
2021/07/20 03:56:10;;;;;;;9.73;6.30;;;18.70;70.90;;;;;;2239654;56;21341;-69
2021/07/20 03:58:37;;;;;;;9.70;5.93;;;18.60;70.80;;;;;;2319049;56;21296;-70
2021/07/20 04:01:03;;;;;;;8.32;5.53;;;18.60;70.90;;;;;;2272553;56;21011;-69
2021/07/20 04:03:30;;;;;;;7.85;5.18;;;18.60;70.90;;;;;;2330376;55;20965;-69
2021/07/20 04:05:59;;;;;;;10.00;5.82;;;18.60;70.90;;;;;;2293738;55;21844;-69
2021/07/20 04:08:25;;;;;;;11.55;6.70;;;18.60;71.00;;;;;;2219258;56;20999;-69
2021/07/20 04:10:53;;;;;;;10.45;6.43;;;18.50;70.90;;;;;;2241950;56;20939;-69
2021/07/20 04:13:19;;;;;;;10.68;6.70;;;18.50;70.90;;;;;;2254558;56;21004;-70
2021/07/20 04:15:50;;;;;;;9.95;6.60;;;18.50;71.00;;;;;;2239712;56;20958;-69
2021/07/20 04:18:16;;;;;;;8.95;6.05;;;18.50;71.00;;;;;;2237667;56;20995;-69
2021/07/20 04:20:43;;;;;;;9.25;6.43;;;18.50;71.10;;;;;;2240154;56;21002;-68
2021/07/20 04:23:10;;;;;;;9.68;6.55;;;18.50;71.10;;;;;;2239864;56;20966;-69
2021/07/20 04:25:37;;;;;;;10.45;6.95;;;18.50;71.20;;;;;;2236078;56;21012;-70
2021/07/20 04:28:04;;;;;;;11.38;7.30;;;18.50;71.30;;;;;;2287144;56;20966;-69
2021/07/20 04:30:31;;;;;;;10.60;7.03;;;18.50;71.40;;;;;;2260162;56;21397;-70
2021/07/20 04:32:57;;;;;;;11.30;7.22;;;18.40;71.40;;;;;;2238105;56;20974;-70
2021/07/20 04:35:25;;;;;;;10.70;6.47;;;18.50;71.40;;;;;;2239207;56;21028;-69
2021/07/20 04:37:51;;;;;;;8.90;5.93;;;18.40;71.30;;;;;;2300952;56;21043;-69
2021/07/20 04:40:17;;;;;;;9.63;6.03;;;18.40;71.40;;;;;;2239107;56;20966;-69
2021/07/20 04:42:44;;;;;;;12.32;6.68;;;18.40;71.40;;;;;;2357344;56;21467;-69
2021/07/20 04:45:12;;;;;;;10.25;6.10;;;18.40;71.40;;;;;;2463307;56;20982;-69
2021/07/20 04:47:41;;;;;;;9.07;5.90;;;18.40;71.40;;;;;;2239543;56;20970;-69
2021/07/20 04:50:09;;;;;;;11.07;6.28;;;18.40;71.50;;;;;;2428562;56;21452;-69
2021/07/20 04:52:35;;;;;;;11.27;6.85;;;18.40;71.60;;;;;;2462950;55;21408;-70
2021/07/20 04:55:02;;;;;;;10.07;6.25;;;18.40;71.70;;;;;;2221188;57;21579;-68
2021/07/20 04:57:29;;;;;;;12.73;6.22;;;18.40;71.80;;;;;;2243101;56;20996;-70
2021/07/20 04:59:56;;;;;;;12.50;7.35;;;18.40;71.90;;;;;;2235710;56;20966;-69
2021/07/20 05:02:22;;;;;;;11.02;6.82;;;18.40;72.10;;;;;;2243288;56;21519;-69
2021/07/20 05:04:48;;;;;;;10.77;7.15;;;18.50;72.20;;;;;;2351217;56;21538;-68
2021/07/20 05:07:16;;;;;;;9.93;6.37;;;18.50;72.30;;;;;;2239406;56;20950;-70
2021/07/20 05:09:43;;;;;;;10.27;6.50;;;18.50;72.40;;;;;;2280111;56;21530;-70
2021/07/20 05:12:11;;;;;;;9.07;6.07;;;18.50;72.50;;;;;;2241974;56;21121;-69
2021/07/20 05:14:37;;;;;;;10.60;6.55;;;18.60;72.70;;;;;;2201834;56;21032;-68
2021/07/20 05:17:05;;;;;;;11.82;6.43;;;18.50;72.60;;;;;;2242863;56;21033;-70
2021/07/20 05:19:31;;;;;;;9.90;6.12;;;18.60;72.70;;;;;;2239646;56;21070;-69
2021/07/20 05:21:58;;;;;;;8.90;5.82;;;18.60;72.70;;;;;;2239519;56;21074;-70
2021/07/20 05:24:25;;;;;;;8.05;5.50;;;18.70;72.90;;;;;;2239055;56;21062;-70
2021/07/20 05:26:51;;;;;;;8.65;4.87;;;18.70;72.90;;;;;;2240943;56;20961;-69
2021/07/20 05:29:19;;;;;;;10.10;6.10;;;18.70;73.00;;;;;;2237650;56;21051;-69
2021/07/20 05:31:46;;;;;;;10.38;6.82;;;18.80;73.10;;;;;;2459865;55;20946;-71
2021/07/20 05:34:13;;;;;;;10.43;6.28;;;18.80;73.20;;;;;;2332603;56;21456;-69
2021/07/20 05:36:40;;;;;;;11.52;7.45;;;18.80;73.20;;;;;;2257770;56;20967;-69
2021/07/20 05:39:06;;;;;;;11.77;6.93;;;18.90;73.30;;;;;;2240513;56;21099;-68
2021/07/20 05:41:32;;;;;;;11.43;7.53;;;19.00;73.50;;;;;;2245034;56;20994;-70
2021/07/20 05:43:59;;;;;;;12.23;7.47;;;19.00;73.50;;;;;;2239446;56;21046;-69
2021/07/20 05:46:25;;;;;;;11.00;6.87;;;19.00;73.50;;;;;;2426330;55;21026;-69
2021/07/20 05:48:52;;;;;;;13.18;7.20;;;19.10;73.60;;;;;;2236127;56;21476;-70
2021/07/20 05:51:18;;;;;;;11.18;6.90;;;19.10;73.60;;;;;;2239832;56;21353;-70
2021/07/20 05:53:44;;;;;;;12.05;7.43;;;19.20;73.60;;;;;;2239358;56;21482;-69
2021/07/20 05:56:11;;;;;;;12.32;7.30;;;19.30;73.80;;;;;;2239572;56;21002;-69
2021/07/20 05:58:37;;;;;;;11.82;7.60;;;19.30;73.70;;;;;;2463580;56;21021;-69
2021/07/20 06:01:04;;;;;;;12.75;8.25;;;19.30;73.70;;;;;;2240741;56;21538;-69
2021/07/20 06:03:32;;;;;;;13.30;8.43;;;19.40;73.90;;;;;;2237659;56;20970;-69
2021/07/20 06:05:58;;;;;;;10.30;6.97;;;19.50;74.00;;;;;;2239227;56;21317;-69
2021/07/20 06:08:26;;;;;;;13.52;8.48;;;19.50;73.90;;;;;;2239505;56;21515;-69
2021/07/20 06:10:56;;;;;;;10.40;6.87;;;19.60;73.90;;;;;;2243282;56;20962;-70
2021/07/20 06:13:24;;;;;;;12.63;7.75;;;19.60;73.80;;;;;;2235049;56;21009;-69
2021/07/20 06:15:50;;;;;;;12.45;7.87;;;19.70;74.00;;;;;;2396433;56;21020;-69
2021/07/20 06:18:17;;;;;;;12.18;7.85;;;19.70;74.00;;;;;;2239584;56;20935;-70
2021/07/20 06:20:52;;;;;;;10.95;7.20;;;19.70;74.00;;;;;;2232132;56;21025;-69
2021/07/20 06:23:18;;;;;;;10.82;7.62;;;19.80;74.10;;;;;;2217713;57;21394;-69
2021/07/20 06:25:44;;;;;;;11.25;7.12;;;19.90;74.20;;;;;;2220931;57;21026;-70
2021/07/20 06:28:11;;;;;;;9.60;6.62;;;19.90;74.20;;;;;;2244749;56;20989;-70
2021/07/20 06:30:37;;;;;;;10.73;6.93;;;20.00;74.40;;;;;;2235905;56;20994;-67
2021/07/20 06:33:04;;;;;;;11.02;7.57;;;20.00;74.50;;;;;;2239618;56;21891;-67
2021/07/20 06:35:30;;;;;;;13.75;7.50;;;20.10;74.60;;;;;;2239366;56;21427;-68
2021/07/20 06:37:56;;;;;;;11.40;7.62;;;20.10;74.50;;;;;;2294920;55;20998;-71
2021/07/20 06:40:23;;;;;;;12.35;7.43;;;20.20;74.60;;;;;;2238248;56;20990;-70
2021/07/20 06:42:49;;;;;;;10.75;7.53;;;20.30;74.50;;;;;;2241084;56;20985;-71
2021/07/20 06:45:16;;;;;;;10.88;7.15;;;20.30;74.40;;;;;;2237171;56;21554;-70
2021/07/20 06:47:42;;;;;;;10.10;7.40;;;20.40;74.40;;;;;;2239617;56;21105;-71
2021/07/20 06:50:09;;;;;;;11.35;7.35;;;20.50;74.50;;;;;;2239480;56;21492;-70
2021/07/20 06:52:36;;;;;;;11.77;7.22;;;20.50;74.40;;;;;;2463270;56;20958;-70
2021/07/20 06:55:02;;;;;;;10.48;7.22;;;20.60;74.50;;;;;;2242786;56;21289;-70
2021/07/20 06:57:29;;;;;;;12.73;7.37;;;20.60;74.50;;;;;;2241525;56;21030;-70
2021/07/20 06:59:55;;;;;;;10.50;6.93;;;20.70;74.60;;;;;;2457704;55;20986;-71
2021/07/20 07:02:22;;;;;;;10.73;7.10;;;20.70;74.60;;;;;;2239434;56;20966;-71
2021/07/20 07:05:12;;;;;;;12.00;7.30;;;20.80;74.70;;;;;;2463497;56;21078;-69
2021/07/20 07:07:39;;;;;;;10.48;6.93;;;20.90;74.80;;;;;;2239660;56;21433;-71
2021/07/20 07:10:06;;;;;;;9.93;6.90;;;21.00;75.10;;;;;;2238722;56;21397;-70
2021/07/20 07:12:32;;;;;;;10.15;6.50;;;21.10;75.20;;;;;;2239267;56;20962;-69
2021/07/20 07:15:01;;;;;;;14.07;8.50;;;21.20;75.30;;;;;;2241062;56;20934;-71
2021/07/20 07:17:27;;;;;;;13.48;7.28;;;21.20;75.30;;;;;;2237181;56;20966;-72
2021/07/20 07:19:53;;;;;;;10.43;6.72;;;21.30;75.50;;;;;;2239873;56;21034;-72
2021/07/20 07:22:20;;;;;;;9.52;6.68;;;21.50;75.80;;;;;;2239520;56;20994;-71
2021/07/20 07:24:46;;;;;;;11.75;7.50;;;21.60;75.90;;;;;;2257704;56;21879;-71
2021/07/20 07:27:14;;;;;;;12.35;8.27;;;21.70;75.90;;;;;;2463247;56;21020;-72
2021/07/20 07:29:41;;;;;;;10.57;7.22;;;21.80;75.60;;;;;;2239465;56;20971;-71
2021/07/20 07:32:07;;;;;;;11.98;7.43;;;21.90;75.30;;;;;;2358152;56;20950;-72
2021/07/20 07:34:35;;;;;;;11.02;7.68;;;22.00;75.30;;;;;;2413188;55;21098;-72
2021/07/20 07:37:02;;;;;;;10.73;7.00;;;22.10;75.50;;;;;;2274463;56;20945;-72
2021/07/20 07:39:28;;;;;;;10.43;7.07;;;22.20;75.70;;;;;;2369458;55;21076;-72
2021/07/20 07:41:54;;;;;;;10.90;7.03;;;22.30;75.70;;;;;;2239287;56;21305;-72
2021/07/20 07:44:21;;;;;;;11.12;7.72;;;22.40;75.40;;;;;;2237989;56;21882;-71
2021/07/20 07:46:48;;;;;;;14.05;8.68;;;22.50;75.10;;;;;;2240688;56;20966;-72
2021/07/20 07:49:15;;;;;;;14.68;8.60;;;22.60;74.80;;;;;;2238509;56;20953;-70
2021/07/20 07:51:42;;;;;;;14.07;7.90;;;22.60;74.50;;;;;;2270025;56;21038;-73
2021/07/20 07:54:11;;;;;;;11.32;8.00;;;22.70;74.30;;;;;;2238810;56;20976;-72
2021/07/20 07:56:37;;;;;;;11.65;7.65;;;22.80;74.40;;;;;;2254670;56;20954;-72
2021/07/20 07:59:04;;;;;;;14.40;8.55;;;22.80;74.30;;;;;;2239823;56;20958;-71
2021/07/20 08:01:30;;;;;;;15.00;8.65;;;22.90;74.10;;;;;;2239570;56;20986;-72
2021/07/20 08:03:57;;;;;;;13.15;8.57;;;23.00;73.80;;;;;;2239685;56;21005;-71
2021/07/20 08:06:25;;;;;;;13.07;8.18;;;23.00;73.60;;;;;;2464361;56;21849;-70
2021/07/20 08:09:03;;;;;;;11.25;7.43;;;23.10;73.50;;;;;;2218611;57;20994;-68
2021/07/20 08:11:31;;;;;;;13.52;8.77;;;23.10;73.20;;;;;;2240412;56;21002;-69
2021/07/20 08:14:00;;;;;;;13.73;8.85;;;23.20;73.90;;;;;;2386914;56;21506;-72
2021/07/20 08:16:29;;;;;;;13.95;9.00;;;23.20;73.00;;;;;;2241752;56;20915;-72
2021/07/20 08:18:56;;;;;;;15.05;9.70;;;23.20;72.80;;;;;;2239032;56;21037;-72
2021/07/20 08:21:24;;;;;;;11.07;8.00;;;23.30;72.80;;;;;;2239933;56;21006;-72
2021/07/20 08:23:50;;;;;;;11.25;8.15;;;23.30;72.60;;;;;;2239295;56;20990;-73
2021/07/20 08:26:43;;;;;;;16.17;8.65;;;23.40;72.90;;;;;;2260330;56;20914;-71
2021/07/20 08:29:12;;;;;;;12.20;7.70;;;23.40;72.80;;;;;;2259547;56;20998;-73
2021/07/20 08:33:32;;;;;;;15.90;8.82;;;23.50;72.60;;;;;;2464119;55;21293;-72
2021/07/20 08:36:01;;;;;;;11.90;7.37;;;23.60;71.60;;;;;;2384065;56;21006;-73
2021/07/20 08:38:27;;;;;;;11.00;7.90;;;23.60;72.40;;;;;;2338751;55;20950;-73
2021/07/20 08:42:34;;;;;;;11.93;7.78;;;23.70;72.80;;;;;;2380068;55;20976;-72
2021/07/20 08:45:19;;;;;;;12.30;7.55;;;23.80;71.60;;;;;;2240036;56;21046;-72
2021/07/20 08:48:05;;;;;;;10.27;6.82;;;23.80;72.40;;;;;;2243264;56;21015;-72
2021/07/20 08:50:56;;;;;;;12.13;8.00;;;23.90;71.60;;;;;;2241233;56;20958;-70
2021/07/20 08:53:47;;;;;;;12.32;7.32;;;24.00;72.10;;;;;;2242256;56;20982;-72
2021/07/20 08:56:18;;;;;;;10.90;7.60;;;24.00;70.90;;;;;;2238003;56;20995;-73
2021/07/20 08:58:47;;;;;;;11.12;7.85;;;24.10;72.00;;;;;;2242727;56;21070;-73
2021/07/20 09:01:29;;;;;;;19.17;9.65;;;24.10;71.90;;;;;;2238357;56;21034;-72
2021/07/20 09:04:02;;;;;;;14.10;9.05;;;24.20;71.10;;;;;;2242401;56;21006;-72
2021/07/20 09:06:34;;;;;;;11.88;7.28;;;24.30;71.90;;;;;;2236826;56;20973;-74
2021/07/20 09:09:19;;;;;;;11.23;7.57;;;24.40;72.30;;;;;;2239787;56;20962;-72
2021/07/20 09:12:04;;;;;;;10.63;7.18;;;24.40;72.00;;;;;;2267704;56;20986;-73
2021/07/20 09:15:04;;;;;;;11.07;7.37;;;24.50;72.70;;;;;;2239490;56;20994;-73
2021/07/20 09:18:34;;;;;;;9.65;7.43;;;24.60;71.10;;;;;;2239678;56;21081;-72
2021/07/20 09:21:04;;;;;;;10.02;7.15;;;24.80;71.50;;;;;;2239895;56;20990;-72
2021/07/20 09:23:48;;;;;;;10.30;6.95;;;24.90;72.90;;;;;;2459257;55;21026;-71
2021/07/20 09:26:19;;;;;;;12.75;7.85;;;25.00;72.20;;;;;;2242736;56;20973;-71
2021/07/20 09:29:02;;;;;;;11.45;7.72;;;25.10;72.50;;;;;;2460682;56;21062;-72
2021/07/20 09:31:44;;;;;;;;;;;25.20;71.60;;;;;;2243066;56;21009;-72
2021/07/20 09:34:48;;;;;;;8.77;6.15;;;25.20;70.80;;;;;;2264148;56;20070;-72
2021/07/20 09:37:26;;;;;;;9.40;6.43;;;25.30;70.30;;;;;;2463905;55;21015;-72
2021/07/20 09:43:33;;;;;;;10.48;6.45;;;25.40;70.90;;;;;;2285823;55;21047;-73
2021/07/20 09:46:02;;;;;;;10.15;7.07;;;25.50;70.80;;;;;;2358152;56;20978;-72
2021/07/20 09:50:05;;;;;;;10.35;7.47;;;25.50;71.60;;;;;;2239705;56;21009;-72
2021/07/20 09:53:09;;;;;;;9.77;6.55;;;25.50;70.80;;;;;;2242509;56;21851;-72
2021/07/20 09:57:12;;;;;;;10.35;7.40;;;25.60;69.90;;;;;;2239264;56;20959;-71
2021/07/20 10:00:10;;;;;;;8.65;7.05;;;25.70;69.60;;;;;;2221978;57;21011;-72
2021/07/20 10:03:08;;;;;;;11.35;7.47;;;25.80;69.40;;;;;;2423490;55;21490;-71
2021/07/20 10:06:46;;;;;;;11.90;7.50;;;25.80;69.00;;;;;;2422068;56;21011;-71
2021/07/20 10:09:20;;;;;;;10.75;7.25;;;25.90;69.00;;;;;;2218936;57;20953;-72
2021/07/20 10:14:39;;;;;;;10.73;7.22;;;25.90;69.80;;;;;;2245806;56;20990;-72
2021/07/20 10:20:22;;;;;;;9.50;6.68;;;25.90;68.30;;;;;;2243664;56;21087;-70
2021/07/20 10:22:57;;;;;;;8.73;6.55;;;26.10;69.40;;;;;;2315343;56;20974;-71
2021/07/20 10:25:41;;;;;;;;;;;26.10;69.30;;;;;;2242882;56;21041;-71
2021/07/20 10:28:30;;;;;;;10.02;6.07;;;26.20;69.20;;;;;;2289058;55;20107;-71
2021/07/20 10:31:14;;;;;;;8.73;6.28;;;26.20;68.10;;;;;;2237998;56;21061;-72
2021/07/20 10:33:58;;;;;;;8.43;6.28;;;26.20;68.90;;;;;;2288321;56;21001;-73
2021/07/20 10:36:42;;;;;;;9.88;5.90;;;26.20;69.00;;;;;;2265770;56;21062;-73
2021/07/20 10:39:09;;;;;;;10.43;6.78;;;26.30;69.30;;;;;;2388214;56;20926;-73
2021/07/20 10:42:30;;;;;;;9.63;6.80;;;26.30;69.50;;;;;;2241656;56;20970;-73
2021/07/20 10:45:12;;;;;;;11.98;7.22;;;26.40;67.20;;;;;;2239052;56;21834;-72
2021/07/20 10:48:00;;;;;;;10.95;5.90;;;26.50;67.80;;;;;;2239495;56;20962;-73
2021/07/20 10:52:37;;;;;;;9.02;6.05;;;26.50;68.50;;;;;;2239937;56;21070;-71
2021/07/20 10:55:09;;;;;;;7.72;5.65;;;26.60;67.20;;;;;;2239564;56;21002;-72
2021/07/20 10:57:38;;;;;;;9.32;6.50;;;26.70;68.20;;;;;;2239778;56;21034;-73
2021/07/20 11:00:21;;;;;;;8.90;6.35;;;26.70;68.60;;;;;;2266262;56;20994;-71
2021/07/20 11:03:03;;;;;;;9.07;6.82;;;26.80;67.60;;;;;;2244428;56;20990;-70
2021/07/20 11:05:30;;;;;;;10.00;7.60;;;26.90;68.40;;;;;;2331658;56;20982;-70
2021/07/20 11:08:02;;;;;;;9.43;7.00;;;26.90;67.90;;;;;;2240261;56;21526;-70
2021/07/20 11:10:31;;;;;;;;;;;27.00;67.00;;;;;;2327177;56;21533;-71
2021/07/20 11:13:11;;;;;;;8.80;6.22;;;27.00;66.80;;;;;;2239280;56;20153;-72
2021/07/20 11:15:53;;;;;;;9.35;6.80;;;27.00;66.80;;;;;;2265970;56;21023;-72
2021/07/20 11:18:20;;;;;;;9.13;6.68;;;27.00;66.70;;;;;;2218914;57;21023;-72
2021/07/20 11:20:47;;;;;;;9.27;6.78;;;27.00;66.90;;;;;;2433919;56;20978;-73
2021/07/20 11:23:15;;;;;;;9.43;7.00;;;27.10;67.00;;;;;;2289867;56;21360;-73
2021/07/20 11:25:41;;;;;;;9.60;6.97;;;27.10;67.20;;;;;;2240493;56;20974;-71
2021/07/20 11:28:07;;;;;;;10.77;7.30;;;27.20;67.50;;;;;;2236983;56;20993;-73
2021/07/20 11:30:35;;;;;;;9.35;7.18;;;27.20;67.20;;;;;;2239385;56;21014;-73
2021/07/20 11:33:48;;;;;;;10.25;7.00;;;27.30;66.80;;;;;;2285253;56;20986;-70
2021/07/20 11:36:19;;;;;;;10.15;6.90;;;27.40;65.20;;;;;;2244065;55;20975;-72
2021/07/20 11:38:45;;;;;;;8.55;6.20;;;27.40;66.40;;;;;;2240001;56;21443;-72
2021/07/20 11:44:17;;;;;;;8.90;6.78;;;27.50;66.50;;;;;;2239873;56;21026;-73
2021/07/20 11:47:03;;;;;;;10.23;6.87;;;27.60;65.60;;;;;;2239471;56;20966;-73
2021/07/20 11:50:15;;;;;;;11.25;7.12;;;27.60;64.40;;;;;;2259088;56;21971;-72
2021/07/20 11:55:34;;;;;;;9.30;6.75;;;27.60;65.50;;;;;;2237204;56;22739;-73
2021/07/20 11:59:52;;;;;;;8.38;6.15;;;27.70;64.20;;;;;;2412921;56;20967;-72
2021/07/20 12:05:15;;;;;;;10.70;7.15;;;27.80;64.70;;;;;;2239957;56;21015;-73
2021/07/20 12:08:04;;;;;;;10.32;6.93;;;27.80;65.00;;;;;;2239815;56;21532;-72
2021/07/20 12:10:51;;;;;;;10.40;7.35;;;27.80;63.80;;;;;;2244372;56;20990;-71
2021/07/20 12:13:17;;;;;;;11.20;7.32;;;27.80;64.50;;;;;;2235923;56;20998;-73
2021/07/20 12:15:43;;;;;;;9.50;7.22;;;27.80;65.70;;;;;;2240032;56;21001;-71
2021/07/20 12:18:09;;;;;;;10.82;7.97;;;27.90;65.60;;;;;;2239742;56;20962;-71
2021/07/20 12:20:44;;;;;;;9.82;7.45;;;27.90;65.40;;;;;;2249890;56;21026;-71
2021/07/20 12:23:11;;;;;;;11.15;8.13;;;27.90;63.50;;;;;;2241903;56;20981;-71
2021/07/20 12:25:38;;;;;;;10.38;7.80;;;28.00;64.50;;;;;;2236776;56;21058;-69
2021/07/20 12:28:05;;;;;;;10.32;7.25;;;28.00;63.90;;;;;;2253842;56;21438;-70
2021/07/20 12:30:32;;;;;;;9.27;7.15;;;28.00;64.00;;;;;;2239544;56;21453;-71
2021/07/20 12:33:01;;;;;;;10.57;7.35;;;28.00;63.70;;;;;;2464034;56;20958;-68
2021/07/20 12:35:29;;;;;;;10.50;7.90;;;28.00;63.60;;;;;;2239639;56;20954;-73
2021/07/20 12:38:11;;;;;;;10.43;7.12;;;28.00;63.50;;;;;;2321413;56;21780;-74
2021/07/20 12:40:38;;;;;;;10.18;7.20;;;28.10;62.80;;;;;;2239370;56;21085;-74
2021/07/20 12:43:16;;;;;;;9.13;7.12;;;28.10;63.80;;;;;;2369555;56;21014;-73
2021/07/20 12:45:46;;;;;;;9.52;7.00;;;28.10;63.70;;;;;;2243645;56;21006;-71
2021/07/20 12:48:26;;;;;;;10.77;7.75;;;28.20;63.30;;;;;;2459610;56;21042;-73
2021/07/20 12:50:53;;;;;;;12.00;8.20;;;28.20;61.60;;;;;;2243210;56;21002;-73
2021/07/20 12:53:21;;;;;;;10.38;7.32;;;28.30;63.30;;;;;;2236112;56;20981;-72
2021/07/20 12:55:48;;;;;;;10.70;7.62;;;28.30;63.10;;;;;;2239530;56;22195;-71
2021/07/20 12:58:20;;;;;;;9.80;7.05;;;28.30;62.90;;;;;;2242453;56;20995;-72
2021/07/20 13:00:46;;;;;;;10.85;7.85;;;28.30;62.80;;;;;;2245553;56;20974;-72
2021/07/20 13:03:13;;;;;;;9.77;7.05;;;28.40;63.00;;;;;;2220936;55;20990;-72
2021/07/20 13:05:42;;;;;;;9.77;7.35;;;28.40;62.60;;;;;;2261719;56;20982;-71
2021/07/20 13:08:12;;;;;;;9.07;6.22;;;28.40;62.50;;;;;;2239426;56;21034;-72
2021/07/20 13:10:39;;;;;;;11.45;7.03;;;28.40;62.40;;;;;;2241573;56;20994;-73
2021/07/20 13:13:06;;;;;;;14.15;8.23;;;28.50;62.50;;;;;;2397795;56;21777;-72
2021/07/20 13:15:33;;;;;;;10.27;7.82;;;28.50;62.20;;;;;;2372569;55;21001;-71
2021/07/20 13:18:01;;;;;;;11.10;7.60;;;28.60;62.00;;;;;;2316371;56;21613;-73
2021/07/20 13:20:32;;;;;;;9.98;6.80;;;28.60;61.80;;;;;;2225018;57;21769;-72
2021/07/20 13:22:59;;;;;;;11.12;7.90;;;28.60;61.40;;;;;;2254271;56;21010;-73
2021/07/20 13:25:25;;;;;;;9.45;6.93;;;28.70;62.00;;;;;;2239577;56;20974;-72
2021/07/20 13:27:53;;;;;;;11.57;7.87;;;28.70;61.70;;;;;;2245076;56;21006;-73
2021/07/20 13:30:21;;;;;;;9.35;7.10;;;28.70;61.40;;;;;;2239242;56;21324;-70
2021/07/20 13:32:48;;;;;;;9.68;7.05;;;28.80;61.40;;;;;;2300779;56;21568;-73
2021/07/20 13:35:15;;;;;;;11.32;8.23;;;28.80;61.50;;;;;;2242220;55;20930;-73